Time;durP1;ratioP1;P1;durP2;ratioP2;P2;SDS_P1;SDS_P2;PMS_P1;PMS_P2;Temp;Humidity;BMP_temperature;BMP_pressure;BME280_temperature;BME280_humidity;BME280_pressure;Samples;Min_cycle;Max_cycle;Signal;HPM_P1;HPM_P2
2022/04/05 00:01:56;;;;;;;3.42;2.05;;;20.90;44.10;;;;;;5040455;27;44697;-62
2022/04/05 00:04:24;;;;;;;5.50;2.10;;;20.90;44.10;;;;;;5052928;27;44204;-62
2022/04/05 00:06:52;;;;;;;4.60;2.10;;;20.80;44.00;;;;;;5062255;27;43440;-62
2022/04/05 00:09:19;;;;;;;5.90;2.25;;;20.80;44.00;;;;;;5052687;27;43434;-63
2022/04/05 00:11:46;;;;;;;3.80;1.67;;;20.80;44.00;;;;;;5052655;27;44639;-62
2022/04/05 00:14:14;;;;;;;3.72;1.80;;;20.80;44.10;;;;;;5039092;27;44250;-62
2022/04/05 00:16:41;;;;;;;3.03;1.70;;;20.80;44.10;;;;;;5061765;27;43452;-62
2022/04/05 00:19:09;;;;;;;5.70;2.13;;;20.80;44.10;;;;;;5043814;27;43515;-62
2022/04/05 00:21:36;;;;;;;4.78;2.17;;;20.70;44.00;;;;;;5052535;27;44721;-62
2022/04/05 00:24:05;;;;;;;5.03;1.95;;;20.80;44.10;;;;;;5038860;27;43948;-62
2022/04/05 00:26:34;;;;;;;4.32;1.77;;;20.80;44.10;;;;;;5062823;27;43449;-62
2022/04/05 00:29:01;;;;;;;4.43;1.98;;;20.80;44.10;;;;;;5039517;27;43538;-62
2022/04/05 00:31:29;;;;;;;3.63;1.90;;;20.80;44.10;;;;;;5052220;27;43794;-62
2022/04/05 00:33:56;;;;;;;3.65;2.20;;;20.70;44.10;;;;;;5052361;27;43520;-62
2022/04/05 00:36:24;;;;;;;5.00;2.10;;;20.70;44.10;;;;;;5063079;27;43516;-62
2022/04/05 00:38:51;;;;;;;3.20;1.90;;;20.70;44.10;;;;;;5052272;27;43446;-63
2022/04/05 00:41:19;;;;;;;3.47;1.90;;;20.70;44.70;;;;;;5051807;27;44662;-62
2022/04/05 00:43:46;;;;;;;4.85;1.92;;;20.70;44.10;;;;;;5096304;27;43474;-62
2022/04/05 00:46:14;;;;;;;4.68;2.00;;;20.70;44.10;;;;;;5060371;27;43465;-62
2022/04/05 00:48:51;;;;;;;3.20;1.90;;;20.70;44.10;;;;;;5053003;27;43614;-62
2022/04/05 00:51:20;;;;;;;4.03;1.85;;;20.70;44.10;;;;;;5049268;27;43971;-62
2022/04/05 00:53:51;;;;;;;3.75;1.85;;;20.70;44.10;;;;;;5047956;27;44025;-62
2022/04/05 00:56:20;;;;;;;4.32;1.70;;;20.60;44.10;;;;;;5039051;27;43444;-62
2022/04/05 00:58:50;;;;;;;3.63;1.90;;;20.60;44.00;;;;;;5051626;27;43515;-62
2022/04/05 01:01:19;;;;;;;5.18;2.05;;;20.60;44.10;;;;;;5101958;27;45684;-62
2022/04/05 01:03:49;;;;;;;4.68;2.00;;;20.60;44.10;;;;;;5052097;27;43439;-62
2022/04/05 01:06:25;;;;;;;3.22;1.60;;;20.60;44.00;;;;;;5055833;27;43981;-62
2022/04/05 01:08:53;;;;;;;3.53;1.70;;;20.60;44.00;;;;;;5051749;27;43462;-61
2022/04/05 01:11:21;;;;;;;4.75;1.92;;;20.60;44.10;;;;;;5036544;28;44172;-63
2022/04/05 01:13:48;;;;;;;3.75;2.10;;;20.60;44.80;;;;;;5051179;27;43524;-62
2022/04/05 01:16:19;;;;;;;4.47;2.00;;;20.60;44.10;;;;;;5050025;27;43570;-63
2022/04/05 01:18:48;;;;;;;3.97;1.90;;;20.60;44.00;;;;;;5051447;27;43770;-62
2022/04/05 01:21:17;;;;;;;3.53;1.85;;;20.50;44.00;;;;;;5051584;27;43810;-62
2022/04/05 01:24:14;;;;;;;6.82;1.85;;;20.50;44.00;;;;;;5093269;27;43987;-62
2022/04/05 01:26:44;;;;;;;4.63;2.05;;;20.50;44.10;;;;;;5044946;27;43637;-62
2022/04/05 01:29:13;;;;;;;3.58;1.50;;;20.50;44.10;;;;;;5051795;27;43441;-62
2022/04/05 01:31:46;;;;;;;3.40;1.70;;;20.50;44.10;;;;;;5045671;27;43797;-62
2022/04/05 01:34:16;;;;;;;5.10;2.03;;;20.50;44.10;;;;;;5038322;27;43449;-62
2022/04/05 01:36:51;;;;;;;3.33;1.85;;;20.50;44.10;;;;;;5051966;27;43505;-62
2022/04/05 01:39:22;;;;;;;4.22;2.03;;;20.50;44.10;;;;;;5061233;27;43463;-62
2022/04/05 01:41:55;;;;;;;3.53;1.70;;;20.50;44.10;;;;;;5048972;27;44648;-62
2022/04/05 01:44:23;;;;;;;3.38;1.50;;;20.50;44.10;;;;;;5050691;27;43695;-62
2022/04/05 01:46:51;;;;;;;3.28;1.98;;;20.40;44.10;;;;;;5054005;27;43495;-62
2022/04/05 01:49:20;;;;;;;3.70;1.65;;;20.40;44.10;;;;;;5061982;27;43530;-63
2022/04/05 01:51:48;;;;;;;5.45;2.17;;;20.40;44.10;;;;;;5043632;27;43761;-62
2022/04/05 01:54:20;;;;;;;3.22;1.65;;;20.40;44.10;;;;;;5050715;27;43689;-62
2022/04/05 01:56:49;;;;;;;3.15;1.50;;;20.40;44.10;;;;;;5051813;27;43558;-62
2022/04/05 01:59:24;;;;;;;3.55;1.63;;;20.40;44.10;;;;;;5058879;27;43450;-63
2022/04/05 02:01:52;;;;;;;2.53;1.52;;;20.40;44.10;;;;;;5031117;27;43804;-62
2022/04/05 02:04:20;;;;;;;2.95;1.77;;;20.40;44.10;;;;;;5050811;27;43448;-62
2022/04/05 02:06:48;;;;;;;3.45;1.52;;;20.40;44.10;;;;;;5058685;27;43405;-62
2022/04/05 02:09:20;;;;;;;4.35;1.90;;;20.40;44.10;;;;;;5089630;27;43633;-62
2022/04/05 02:11:48;;;;;;;3.50;1.52;;;20.30;44.10;;;;;;5104092;27;44026;-62
2022/04/05 02:14:37;;;;;;;3.17;1.65;;;20.30;44.10;;;;;;5042429;27;43990;-62
2022/04/05 02:17:09;;;;;;;3.63;1.83;;;20.30;44.10;;;;;;5089956;27;43427;-62
2022/04/05 02:19:38;;;;;;;3.92;1.85;;;20.30;44.10;;;;;;5103974;27;43575;-62
2022/04/05 02:22:08;;;;;;;3.38;1.73;;;20.30;44.10;;;;;;5106454;27;43779;-62
2022/04/05 02:24:37;;;;;;;3.65;1.67;;;20.30;44.10;;;;;;5080328;27;43968;-62
2022/04/05 02:27:06;;;;;;;3.67;1.98;;;20.30;44.10;;;;;;5104551;27;43491;-62
2022/04/05 02:29:35;;;;;;;3.00;1.50;;;20.30;44.10;;;;;;5095210;27;43564;-62
2022/04/05 02:32:10;;;;;;;4.00;1.70;;;20.30;44.10;;;;;;5103306;27;43840;-61
2022/04/05 02:34:39;;;;;;;4.10;1.88;;;20.30;44.10;;;;;;5091309;27;44024;-62
2022/04/05 02:37:08;;;;;;;3.03;1.60;;;20.20;44.10;;;;;;5050922;27;43464;-62
2022/04/05 02:39:37;;;;;;;3.53;1.52;;;20.20;44.10;;;;;;5103306;27;43626;-62
2022/04/05 02:42:06;;;;;;;3.17;1.50;;;20.20;44.20;;;;;;5096598;27;44940;-62
2022/04/05 02:44:38;;;;;;;2.38;1.50;;;20.20;44.10;;;;;;5086026;27;43684;-62
2022/04/05 02:47:07;;;;;;;3.53;1.63;;;20.20;44.10;;;;;;5047047;27;43475;-62
2022/04/05 02:49:39;;;;;;;3.50;1.60;;;20.20;44.10;;;;;;5102899;27;43522;-62
2022/04/05 02:52:15;;;;;;;2.65;1.48;;;20.20;44.10;;;;;;5104869;27;44188;-61
2022/04/05 02:54:50;;;;;;;3.33;1.70;;;20.20;44.10;;;;;;5096434;27;43509;-63
2022/04/05 02:57:19;;;;;;;3.30;1.60;;;20.20;44.10;;;;;;5102781;27;43457;-62
2022/04/05 02:59:49;;;;;;;3.63;1.50;;;20.20;44.20;;;;;;5106231;27;43555;-62
2022/04/05 03:02:17;;;;;;;2.63;1.50;;;20.20;44.10;;;;;;5107925;27;44967;-61
2022/04/05 03:04:45;;;;;;;4.53;1.92;;;20.20;44.20;;;;;;5097581;27;43991;-63
2022/04/05 03:07:15;;;;;;;2.70;1.50;;;20.10;44.10;;;;;;5106431;27;43581;-62
2022/04/05 03:09:43;;;;;;;4.57;1.70;;;20.10;44.10;;;;;;5113694;27;43647;-62
2022/04/05 03:12:13;;;;;;;3.30;1.42;;;20.10;44.20;;;;;;5091992;27;45880;-62
2022/04/05 03:14:43;;;;;;;2.85;1.52;;;20.10;44.20;;;;;;5064079;27;43678;-62
2022/04/05 03:17:10;;;;;;;1.90;1.23;;;20.10;44.20;;;;;;5105108;27;43410;-62
2022/04/05 03:19:38;;;;;;;4.13;1.63;;;20.10;44.20;;;;;;5108222;27;43585;-62
2022/04/05 03:22:09;;;;;;;3.70;1.70;;;20.10;44.20;;;;;;5056675;27;44030;-62
2022/04/05 03:24:38;;;;;;;3.22;1.50;;;20.10;44.20;;;;;;5038654;27;43603;-62
2022/04/05 03:27:06;;;;;;;2.95;1.42;;;20.10;44.20;;;;;;5089146;27;43429;-62
2022/04/05 03:29:34;;;;;;;2.55;1.50;;;20.10;44.20;;;;;;5108082;27;43524;-62
2022/04/05 03:32:03;;;;;;;3.03;1.40;;;20.10;44.20;;;;;;5099937;27;44894;-63
2022/04/05 03:34:31;;;;;;;3.35;1.50;;;20.10;44.20;;;;;;5095033;27;43426;-61
2022/04/05 03:36:59;;;;;;;3.03;1.90;;;20.10;44.20;;;;;;5106606;27;43477;-62
2022/04/05 03:39:27;;;;;;;3.80;1.70;;;20.00;44.20;;;;;;5105323;27;43644;-62
2022/04/05 03:41:57;;;;;;;3.20;1.52;;;20.00;44.20;;;;;;5089337;27;45258;-63
2022/04/05 03:44:26;;;;;;;3.65;1.60;;;20.00;44.20;;;;;;5106263;27;43416;-62
2022/04/05 03:46:56;;;;;;;2.70;1.52;;;20.00;44.20;;;;;;5087386;27;43481;-62
2022/04/05 03:49:26;;;;;;;3.50;1.35;;;20.00;44.20;;;;;;5107671;27;43471;-63
2022/04/05 03:51:56;;;;;;;2.55;1.40;;;19.90;44.20;;;;;;5034158;27;44650;-62
2022/04/05 03:54:23;;;;;;;2.78;1.60;;;19.90;44.20;;;;;;5105375;27;44081;-62
2022/04/05 03:56:54;;;;;;;2.67;1.65;;;19.90;44.30;;;;;;5103424;27;43456;-62
2022/04/05 03:59:22;;;;;;;3.08;1.50;;;19.90;44.20;;;;;;5090883;27;43591;-62
2022/04/05 04:01:51;;;;;;;4.25;1.60;;;19.90;44.20;;;;;;5105336;27;43977;-62
2022/04/05 04:04:19;;;;;;;3.22;1.60;;;19.90;44.20;;;;;;5081120;27;43813;-62
2022/04/05 04:06:47;;;;;;;2.35;1.40;;;19.90;44.30;;;;;;5105428;27;43508;-62
2022/04/05 04:09:15;;;;;;;3.70;1.55;;;19.90;44.30;;;;;;5090736;27;43470;-62
2022/04/05 04:11:45;;;;;;;2.80;1.25;;;19.90;44.20;;;;;;5105087;27;44164;-62
2022/04/05 04:14:14;;;;;;;3.58;1.50;;;19.90;44.30;;;;;;5092871;27;43521;-62
2022/04/05 04:16:42;;;;;;;3.20;1.30;;;19.90;44.30;;;;;;5116649;27;43453;-62
2022/04/05 04:19:09;;;;;;;3.45;1.48;;;19.90;44.30;;;;;;5101015;27;43459;-62
2022/04/05 04:21:37;;;;;;;3.40;1.75;;;19.90;44.30;;;;;;5104570;27;43796;-62
2022/04/05 04:24:07;;;;;;;2.58;1.33;;;19.90;44.30;;;;;;5104290;27;43388;-62
2022/04/05 04:26:36;;;;;;;2.72;1.55;;;19.80;44.20;;;;;;5115600;27;43491;-62
2022/04/05 04:29:04;;;;;;;3.72;1.45;;;19.80;44.20;;;;;;5039178;27;43449;-62
2022/04/05 04:31:34;;;;;;;2.53;1.20;;;19.80;44.20;;;;;;5104421;27;44036;-62
2022/04/05 04:34:02;;;;;;;2.88;1.30;;;19.80;44.20;;;;;;5052159;27;43475;-62
2022/04/05 04:36:29;;;;;;;3.15;1.50;;;19.80;44.20;;;;;;5061200;27;43390;-62
2022/04/05 04:38:57;;;;;;;2.60;1.30;;;19.80;44.20;;;;;;5052672;27;43464;-62
2022/04/05 04:41:25;;;;;;;2.88;1.42;;;19.80;44.30;;;;;;5051704;27;43791;-61
2022/04/05 04:43:53;;;;;;;2.40;1.60;;;19.80;44.50;;;;;;5052227;27;43683;-62
2022/04/05 04:46:20;;;;;;;4.00;1.50;;;19.80;44.40;;;;;;5063853;27;43409;-62
2022/04/05 04:48:48;;;;;;;2.80;1.58;;;19.80;44.40;;;;;;5052253;27;43584;-62
2022/04/05 04:51:15;;;;;;;3.75;1.70;;;19.80;44.40;;;;;;5051780;27;43817;-62
2022/04/05 04:53:43;;;;;;;2.53;1.40;;;19.80;44.30;;;;;;5053080;27;43466;-62
2022/04/05 04:56:10;;;;;;;4.35;1.80;;;19.80;44.40;;;;;;5058476;27;43404;-62
2022/04/05 04:58:38;;;;;;;2.88;1.42;;;19.80;44.30;;;;;;5050695;27;43512;-62
2022/04/05 05:01:06;;;;;;;2.38;1.40;;;19.80;44.40;;;;;;5047658;27;44648;-62
2022/04/05 05:03:33;;;;;;;3.28;1.63;;;19.80;44.30;;;;;;5051937;27;43384;-61
2022/04/05 05:06:01;;;;;;;2.00;1.27;;;19.70;44.30;;;;;;5053504;27;43393;-62
2022/04/05 05:08:28;;;;;;;2.25;1.42;;;19.70;44.30;;;;;;5051157;27;43496;-61
2022/04/05 05:10:56;;;;;;;4.18;1.55;;;19.70;44.30;;;;;;5051632;27;43808;-63
2022/04/05 05:13:23;;;;;;;3.47;1.40;;;19.70;44.30;;;;;;5051883;27;43441;-61
2022/04/05 05:15:52;;;;;;;3.10;1.33;;;19.70;44.40;;;;;;5051091;27;43427;-62
2022/04/05 05:18:19;;;;;;;4.55;1.38;;;19.70;44.50;;;;;;5052225;27;43448;-62
2022/04/05 05:20:46;;;;;;;2.63;1.35;;;19.70;44.40;;;;;;5051402;27;44377;-63
2022/04/05 05:23:14;;;;;;;4.40;2.08;;;19.70;44.50;;;;;;5054452;27;43688;-63
2022/04/05 05:25:42;;;;;;;2.92;1.20;;;19.70;44.50;;;;;;5061829;27;44055;-61
2022/04/05 05:28:10;;;;;;;2.65;1.33;;;19.70;44.50;;;;;;5051585;27;43438;-61
2022/04/05 05:30:37;;;;;;;3.40;1.70;;;19.70;44.50;;;;;;5051345;27;44686;-62
2022/04/05 05:33:05;;;;;;;1.30;1.05;;;19.70;44.50;;;;;;5057317;27;43544;-61
2022/04/05 05:35:33;;;;;;;1.83;1.20;;;19.70;44.40;;;;;;5048308;27;43419;-63
2022/04/05 05:38:00;;;;;;;3.20;1.55;;;19.70;44.40;;;;;;5051565;27;43545;-62
2022/04/05 05:40:28;;;;;;;2.83;1.40;;;19.70;44.40;;;;;;5050500;27;43819;-62
2022/04/05 05:43:03;;;;;;;2.17;1.27;;;19.70;44.40;;;;;;5050823;27;43455;-61
2022/04/05 05:45:33;;;;;;;2.58;1.33;;;19.70;44.40;;;;;;5047505;27;43414;-61
2022/04/05 05:48:01;;;;;;;2.63;1.27;;;19.70;44.40;;;;;;5052207;27;43553;-62
2022/04/05 05:50:29;;;;;;;3.72;1.50;;;19.70;44.40;;;;;;5051168;27;43790;-61
2022/04/05 05:52:58;;;;;;;3.15;1.58;;;19.70;44.40;;;;;;5055052;27;43405;-61
2022/04/05 05:55:26;;;;;;;1.98;1.40;;;19.70;45.10;;;;;;5051666;27;43458;-63
2022/04/05 05:57:54;;;;;;;2.55;1.35;;;19.70;44.50;;;;;;5051658;27;43505;-63
2022/04/05 06:00:23;;;;;;;3.00;1.40;;;19.60;44.40;;;;;;5094369;27;44099;-61
2022/04/05 06:03:01;;;;;;;3.70;1.45;;;19.60;44.40;;;;;;5055183;27;43968;-62
2022/04/05 06:05:30;;;;;;;2.88;1.42;;;19.60;44.40;;;;;;5072714;27;43422;-62
2022/04/05 06:07:58;;;;;;;2.78;1.27;;;19.60;44.40;;;;;;5051498;27;43551;-61
2022/04/05 06:10:26;;;;;;;3.53;1.63;;;19.60;44.50;;;;;;5051008;27;44729;-61
2022/04/05 06:12:57;;;;;;;2.80;1.98;;;19.60;44.50;;;;;;5036409;27;43532;-62
2022/04/05 06:15:25;;;;;;;;;;;19.60;44.60;;;;;;5050821;27;43462;-61
2022/04/05 06:17:53;;;;;;;5.50;2.10;;;19.70;44.70;;;;;;5051258;27;43532;-62
2022/04/05 06:20:22;;;;;;;3.75;1.70;;;19.60;44.70;;;;;;5052525;27;44796;-61
2022/04/05 06:22:52;;;;;;;3.85;1.52;;;19.70;44.70;;;;;;5061281;27;43444;-62
2022/04/05 06:25:22;;;;;;;3.50;2.03;;;19.70;44.70;;;;;;5042724;27;43452;-62
2022/04/05 06:27:50;;;;;;;2.42;1.75;;;19.80;44.70;;;;;;5035694;27;43476;-62
2022/04/05 06:30:17;;;;;;;3.83;1.60;;;19.90;44.60;;;;;;5038433;27;44042;-63
2022/04/05 06:32:46;;;;;;;4.70;1.85;;;20.00;44.50;;;;;;5044691;27;43709;-63
2022/04/05 06:35:14;;;;;;;2.67;2.10;;;20.10;44.40;;;;;;5043651;27;43883;-62
2022/04/05 06:37:44;;;;;;;4.57;2.15;;;20.20;44.30;;;;;;5078236;27;43971;-63
2022/04/05 06:40:15;;;;;;;2.40;1.70;;;20.20;44.10;;;;;;5034750;27;44728;-63
2022/04/05 06:42:43;;;;;;;3.55;1.80;;;20.30;44.10;;;;;;5041313;27;43460;-62
2022/04/05 06:45:19;;;;;;;3.42;1.70;;;20.40;44.10;;;;;;5035118;27;43549;-62
2022/04/05 06:47:47;;;;;;;4.22;1.80;;;20.50;44.00;;;;;;5038316;27;43431;-62
2022/04/05 06:50:20;;;;;;;4.68;1.63;;;20.50;43.80;;;;;;5042256;27;44746;-62
2022/04/05 06:52:48;;;;;;;2.67;1.70;;;20.70;43.80;;;;;;5087073;27;43980;-63
2022/04/05 06:55:15;;;;;;;4.65;1.90;;;20.70;43.80;;;;;;5065006;27;43532;-62
2022/04/05 06:57:43;;;;;;;4.13;2.00;;;20.80;43.70;;;;;;5105271;27;43521;-63
2022/04/05 07:00:12;;;;;;;4.30;1.60;;;20.80;43.70;;;;;;5043700;27;43610;-63
2022/04/05 07:02:40;;;;;;;3.42;1.60;;;20.90;43.60;;;;;;5046284;27;43506;-63
2022/04/05 07:05:09;;;;;;;3.67;1.98;;;21.00;43.60;;;;;;5081817;27;43480;-62
2022/04/05 07:07:38;;;;;;;3.28;1.48;;;21.10;43.50;;;;;;5066441;27;43433;-63
2022/04/05 07:10:08;;;;;;;4.15;1.75;;;21.10;43.50;;;;;;5034764;27;43880;-62
2022/04/05 07:12:36;;;;;;;3.30;1.73;;;21.20;43.40;;;;;;5033798;27;43973;-61
2022/04/05 07:15:05;;;;;;;2.55;1.63;;;21.20;43.40;;;;;;5037456;27;43550;-61
2022/04/05 07:17:33;;;;;;;5.25;1.88;;;21.30;43.30;;;;;;5057377;27;43498;-62
2022/04/05 07:20:20;;;;;;;4.25;1.80;;;21.30;43.70;;;;;;5045753;27;44650;-63
2022/04/05 07:22:49;;;;;;;6.60;1.88;;;21.40;43.90;;;;;;5080268;27;43743;-61
2022/04/05 07:25:22;;;;;;;3.35;1.83;;;21.40;43.90;;;;;;5057556;27;43501;-62
2022/04/05 07:27:51;;;;;;;3.80;1.75;;;21.50;43.80;;;;;;5033003;27;43532;-61
2022/04/05 07:30:20;;;;;;;4.07;1.80;;;21.50;43.80;;;;;;5054773;27;44089;-61
2022/04/05 07:32:48;;;;;;;5.60;1.70;;;21.60;43.70;;;;;;5031532;27;43793;-62
2022/04/05 07:35:20;;;;;;;2.22;1.38;;;21.70;44.30;;;;;;5040361;27;43537;-63
2022/04/05 07:37:48;;;;;;;4.28;2.00;;;21.70;43.40;;;;;;5062672;27;43529;-60
2022/04/05 07:40:16;;;;;;;3.85;1.67;;;21.80;43.30;;;;;;5048807;27;44037;-61
2022/04/05 07:42:45;;;;;;;2.88;1.50;;;21.80;43.40;;;;;;5036568;28;44271;-62
2022/04/05 07:45:16;;;;;;;6.20;1.50;;;21.90;43.40;;;;;;5059297;27;43452;-62
2022/04/05 07:47:44;;;;;;;3.93;1.50;;;22.00;43.40;;;;;;5054218;27;43589;-62
2022/04/05 07:50:12;;;;;;;5.70;1.50;;;22.00;43.10;;;;;;5036607;27;43808;-62
2022/04/05 07:52:40;;;;;;;3.35;1.50;;;22.10;43.20;;;;;;5041034;27;43655;-62
2022/04/05 07:55:08;;;;;;;5.20;1.55;;;22.20;43.00;;;;;;5039740;27;43523;-62
2022/04/05 07:57:36;;;;;;;3.63;1.48;;;22.30;42.90;;;;;;5031759;27;43452;-62
2022/04/05 08:00:05;;;;;;;3.90;1.40;;;22.30;42.70;;;;;;5036964;27;45026;-62
2022/04/05 08:02:42;;;;;;;2.30;1.20;;;22.30;42.70;;;;;;5037010;27;43662;-61
2022/04/05 08:05:15;;;;;;;3.65;1.52;;;22.30;42.60;;;;;;5032241;27;43522;-61
2022/04/05 08:07:43;;;;;;;2.33;1.10;;;22.40;42.70;;;;;;5074721;27;43668;-61
2022/04/05 08:10:13;;;;;;;2.83;1.20;;;22.30;42.60;;;;;;5082047;27;43571;-62
2022/04/05 08:12:45;;;;;;;2.28;1.20;;;22.30;42.60;;;;;;5034008;27;43584;-62
2022/04/05 08:15:16;;;;;;;3.25;1.70;;;22.30;42.60;;;;;;5034080;27;44031;-61
2022/04/05 08:17:44;;;;;;;3.40;1.10;;;22.40;42.70;;;;;;5038467;27;43561;-61
2022/04/05 08:20:13;;;;;;;4.38;1.55;;;22.30;42.60;;;;;;5039493;27;44710;-61
2022/04/05 08:22:41;;;;;;;3.08;1.15;;;22.30;42.60;;;;;;5049585;27;43533;-62
2022/04/05 08:25:14;;;;;;;3.10;1.60;;;22.30;42.60;;;;;;5031081;27;43433;-62
2022/04/05 08:27:43;;;;;;;3.03;1.30;;;22.30;42.70;;;;;;5034643;27;43466;-62
2022/04/05 08:30:15;;;;;;;3.13;1.15;;;22.30;42.70;;;;;;5095407;27;44992;-61
2022/04/05 08:32:46;;;;;;;5.25;1.45;;;22.30;42.70;;;;;;5073628;27;43972;-62
2022/04/05 08:35:19;;;;;;;2.67;1.40;;;22.30;42.70;;;;;;5054834;27;43504;-61
2022/04/05 08:37:49;;;;;;;2.15;1.20;;;22.30;42.80;;;;;;5050684;27;43579;-62
2022/04/05 08:40:18;;;;;;;4.80;1.40;;;22.20;42.80;;;;;;5082932;27;44891;-63
2022/04/05 08:42:51;;;;;;;2.92;1.23;;;22.20;42.70;;;;;;5106002;27;43415;-59
2022/04/05 08:45:20;;;;;;;4.60;1.30;;;22.20;43.10;;;;;;5035673;27;43613;-62
2022/04/05 08:47:54;;;;;;;3.47;1.38;;;22.20;42.90;;;;;;5046459;27;43421;-62
2022/04/05 08:50:27;;;;;;;2.58;1.10;;;22.20;42.90;;;;;;5033847;27;44110;-62
2022/04/05 08:52:56;;;;;;;2.60;1.20;;;22.30;42.90;;;;;;5031797;27;43448;-61
2022/04/05 08:55:24;;;;;;;1.83;1.17;;;22.20;42.80;;;;;;5048196;27;43540;-61
2022/04/05 08:57:51;;;;;;;3.75;1.20;;;22.30;42.90;;;;;;5039793;27;44696;-63
2022/04/05 09:00:21;;;;;;;4.30;1.75;;;22.30;42.80;;;;;;5032520;27;44167;-62
2022/04/05 09:03:01;;;;;;;4.80;1.42;;;22.30;42.80;;;;;;5053353;27;43992;-62
2022/04/05 09:05:30;;;;;;;2.17;1.10;;;22.30;43.20;;;;;;5033892;27;43516;-62
2022/04/05 09:08:16;;;;;;;3.17;1.50;;;22.30;42.80;;;;;;5039177;27;43484;-62
2022/04/05 09:10:46;;;;;;;3.13;1.40;;;22.30;42.90;;;;;;5034285;27;44985;-62
2022/04/05 09:13:18;;;;;;;2.72;1.33;;;22.30;42.90;;;;;;5090184;27;43946;-62
2022/04/05 09:15:50;;;;;;;3.72;1.10;;;22.30;43.00;;;;;;5034891;27;43496;-62
2022/04/05 09:18:44;;;;;;;2.22;1.10;;;22.30;42.90;;;;;;5041158;27;43456;-61
2022/04/05 09:21:15;;;;;;;4.13;1.15;;;22.30;43.00;;;;;;5038866;27;46181;-62
2022/04/05 09:23:44;;;;;;;2.90;1.02;;;22.30;42.90;;;;;;5056755;27;43967;-62
2022/04/05 09:26:16;;;;;;;2.70;1.20;;;22.30;42.90;;;;;;5043587;27;43460;-61
2022/04/05 09:28:49;;;;;;;2.85;1.48;;;22.30;43.00;;;;;;5034678;27;43409;-62
2022/04/05 09:31:19;;;;;;;3.70;1.20;;;22.30;43.00;;;;;;5034888;27;43778;-62
2022/04/05 09:34:08;;;;;;;2.88;0.90;;;22.30;43.10;;;;;;5038347;27;43623;-62
2022/04/05 09:36:42;;;;;;;3.95;1.08;;;22.30;43.70;;;;;;5038339;27;43517;-62
2022/04/05 09:39:26;;;;;;;2.55;1.10;;;22.30;43.10;;;;;;5046884;27;43468;-62
2022/04/05 09:41:56;;;;;;;2.22;0.93;;;22.30;43.20;;;;;;5042807;27;44957;-62
2022/04/05 09:44:32;;;;;;;1.60;0.82;;;22.30;43.80;;;;;;5031557;27;43974;-62
2022/04/05 09:47:08;;;;;;;2.03;0.95;;;22.30;43.10;;;;;;5033965;27;43840;-63
2022/04/05 09:49:43;;;;;;;1.50;1.05;;;22.30;43.10;;;;;;5049131;27;43541;-63
2022/04/05 09:52:25;;;;;;;1.20;0.82;;;22.40;43.20;;;;;;5039957;27;44964;-62
2022/04/05 09:54:54;;;;;;;1.73;0.98;;;22.40;43.20;;;;;;5030531;27;43681;-63
2022/04/05 09:57:32;;;;;;;2.53;1.00;;;22.40;43.10;;;;;;5060764;27;43428;-62
2022/04/05 10:00:16;;;;;;;3.75;1.13;;;22.50;43.10;;;;;;5045277;27;43499;-62
2022/04/05 10:03:04;;;;;;;2.75;1.17;;;22.50;43.00;;;;;;5067194;27;45006;-62
2022/04/05 10:05:33;;;;;;;4.57;1.40;;;22.60;43.00;;;;;;5033296;27;43689;-62
2022/04/05 10:08:02;;;;;;;3.10;1.00;;;22.70;42.90;;;;;;5091181;27;43561;-62
2022/04/05 10:10:31;;;;;;;2.17;1.10;;;22.70;42.80;;;;;;5076395;27;43470;-62
2022/04/05 10:12:58;;;;;;;2.88;1.10;;;22.80;42.80;;;;;;5094944;27;44011;-63
2022/04/05 10:15:28;;;;;;;2.45;1.23;;;22.90;42.70;;;;;;5048930;27;43562;-62
2022/04/05 10:17:58;;;;;;;1.45;0.90;;;23.00;42.70;;;;;;5080951;27;43543;-62
2022/04/05 10:20:27;;;;;;;2.05;0.95;;;23.00;42.60;;;;;;5074637;27;43506;-62
2022/04/05 10:22:58;;;;;;;2.45;1.15;;;23.10;42.50;;;;;;5040200;27;44078;-63
2022/04/05 10:25:27;;;;;;;1.88;1.05;;;23.10;42.50;;;;;;5040681;27;43702;-62
2022/04/05 10:27:55;;;;;;;1.63;0.70;;;23.10;42.40;;;;;;5048525;27;43505;-62
2022/04/05 10:30:44;;;;;;;2.35;1.23;;;23.10;42.40;;;;;;5034605;27;43525;-63
2022/04/05 10:33:39;;;;;;;1.35;0.88;;;23.10;42.40;;;;;;5054196;27;44264;-62
2022/04/05 10:36:08;;;;;;;1.33;0.95;;;23.10;42.30;;;;;;5045898;27;43672;-62
2022/04/05 10:38:35;;;;;;;1.92;1.00;;;23.00;42.40;;;;;;5051522;27;43523;-62
2022/04/05 10:41:19;;;;;;;1.25;0.75;;;23.00;42.40;;;;;;5052704;27;43468;-63
2022/04/05 10:44:07;;;;;;;2.00;0.80;;;23.00;42.40;;;;;;5036355;27;44674;-62
2022/04/05 10:46:40;;;;;;;1.73;1.00;;;23.00;42.50;;;;;;5048738;27;43532;-61
2022/04/05 10:49:39;;;;;;;1.77;1.00;;;22.90;42.70;;;;;;5061835;27;44104;-62
2022/04/05 10:52:25;;;;;;;2.55;1.00;;;22.80;42.70;;;;;;5071350;27;43485;-62
2022/04/05 10:55:08;;;;;;;1.15;0.90;;;22.80;42.80;;;;;;5037898;27;44091;-62
2022/04/05 10:57:37;;;;;;;1.38;0.80;;;22.80;42.80;;;;;;5045964;27;44019;-63
2022/04/05 11:00:22;;;;;;;2.08;0.65;;;22.70;42.80;;;;;;5032464;27;43534;-62
2022/04/05 11:02:58;;;;;;;0.70;0.70;;;22.70;42.80;;;;;;5035375;27;43452;-63
2022/04/05 11:05:35;;;;;;;2.53;1.17;;;22.70;42.90;;;;;;5036435;27;45231;-62
2022/04/05 11:08:13;;;;;;;1.77;0.70;;;22.60;42.80;;;;;;5057658;27;44139;-62
2022/04/05 11:10:41;;;;;;;2.08;0.90;;;22.60;42.80;;;;;;5066923;27;43512;-62
2022/04/05 11:13:12;;;;;;;1.30;0.55;;;22.50;42.90;;;;;;5071382;27;43436;-62
2022/04/05 11:15:46;;;;;;;2.25;0.88;;;22.50;43.00;;;;;;5056685;27;44688;-63
2022/04/05 11:18:19;;;;;;;1.35;0.68;;;22.40;43.00;;;;;;5049548;27;43500;-61
2022/04/05 11:20:48;;;;;;;1.77;0.75;;;22.40;43.10;;;;;;5040949;27;43556;-62
2022/04/05 11:23:18;;;;;;;1.02;0.60;;;22.40;43.20;;;;;;5039479;27;43452;-62
2022/04/05 11:25:47;;;;;;;1.08;0.77;;;22.30;43.30;;;;;;5052814;27;45028;-62
2022/04/05 11:28:18;;;;;;;0.77;0.63;;;22.30;43.30;;;;;;5034411;27;43972;-62
2022/04/05 11:30:49;;;;;;;2.13;0.63;;;22.30;43.40;;;;;;5057674;27;43545;-62
2022/04/05 11:33:36;;;;;;;2.20;0.70;;;22.20;43.50;;;;;;5041254;27;43597;-62
2022/04/05 11:36:13;;;;;;;1.10;0.60;;;22.20;43.50;;;;;;5039849;27;44026;-62
2022/04/05 11:38:56;;;;;;;1.42;0.80;;;22.20;43.60;;;;;;5038296;27;43834;-61
2022/04/05 11:41:31;;;;;;;1.55;0.60;;;22.10;43.60;;;;;;5041589;27;43485;-62
2022/04/05 11:44:01;;;;;;;1.90;0.90;;;22.10;43.90;;;;;;5034814;27;43770;-62
2022/04/05 11:46:31;;;;;;;1.17;0.60;;;22.10;43.80;;;;;;5036913;27;43780;-62
2022/04/05 11:49:02;;;;;;;1.17;0.80;;;22.00;43.70;;;;;;5041676;27;43448;-63
2022/04/05 11:51:35;;;;;;;1.08;0.70;;;22.00;43.70;;;;;;5052697;27;43464;-62
2022/04/05 11:54:08;;;;;;;1.13;0.65;;;21.90;43.80;;;;;;5043199;27;43536;-63
2022/04/05 11:56:40;;;;;;;2.35;0.70;;;21.90;43.90;;;;;;5043787;27;44923;-62
2022/04/05 11:59:10;;;;;;;2.17;0.80;;;21.90;44.00;;;;;;5085170;27;43935;-62
2022/04/05 12:01:40;;;;;;;2.05;0.80;;;21.90;44.00;;;;;;5035644;28;43863;-62
2022/04/05 12:04:13;;;;;;;2.22;0.80;;;21.80;44.00;;;;;;5041411;27;43577;-62
2022/04/05 12:06:47;;;;;;;1.70;0.85;;;21.80;44.70;;;;;;5064183;27;43784;-63
2022/04/05 12:09:20;;;;;;;1.55;0.63;;;21.80;44.20;;;;;;5037749;27;43473;-62
2022/04/05 12:11:50;;;;;;;1.17;0.60;;;21.80;44.80;;;;;;5069709;27;43508;-62
2022/04/05 12:14:24;;;;;;;1.08;0.55;;;21.80;44.10;;;;;;5049790;27;43407;-62
2022/04/05 12:16:55;;;;;;;1.17;0.60;;;21.80;44.10;;;;;;5038043;27;44717;-61
2022/04/05 12:19:28;;;;;;;1.60;0.57;;;21.80;44.10;;;;;;5079764;27;43423;-62
2022/04/05 12:21:57;;;;;;;0.90;0.63;;;21.70;44.10;;;;;;5036339;27;43490;-62
2022/04/05 12:24:25;;;;;;;2.10;0.50;;;21.70;44.10;;;;;;5047217;27;43493;-62
2022/04/05 12:26:59;;;;;;;1.75;0.77;;;21.70;44.20;;;;;;5038891;27;44692;-61
2022/04/05 12:29:28;;;;;;;1.15;0.70;;;21.70;44.30;;;;;;5038058;27;43585;-63
2022/04/05 12:32:05;;;;;;;0.50;0.50;;;21.70;44.50;;;;;;5075196;27;43469;-62
2022/04/05 12:34:34;;;;;;;1.83;0.70;;;21.60;44.40;;;;;;5045322;27;43588;-61
2022/04/05 12:37:07;;;;;;;0.98;0.55;;;21.60;44.50;;;;;;5039310;27;43785;-62
2022/04/05 12:39:45;;;;;;;1.52;0.90;;;21.60;44.50;;;;;;5040317;27;43480;-62
2022/04/05 12:42:12;;;;;;;2.13;0.70;;;21.50;44.50;;;;;;5046964;27;43515;-62
2022/04/05 12:44:42;;;;;;;1.00;0.50;;;21.50;44.50;;;;;;5054256;27;43481;-62
2022/04/05 12:47:21;;;;;;;0.57;0.55;;;21.50;44.60;;;;;;5041873;27;45129;-62
2022/04/05 12:49:51;;;;;;;1.52;0.80;;;21.40;44.70;;;;;;5037977;27;43383;-62
2022/04/05 12:52:23;;;;;;;0.90;0.70;;;21.40;44.70;;;;;;5052864;27;44061;-62
2022/04/05 12:54:56;;;;;;;1.20;0.50;;;21.40;44.80;;;;;;5053042;27;43481;-62
2022/04/05 12:57:45;;;;;;;0.85;0.50;;;21.30;44.80;;;;;;5054201;27;43786;-62
2022/04/05 13:00:18;;;;;;;2.40;0.82;;;21.30;44.80;;;;;;5035372;27;44117;-62
2022/04/05 13:02:50;;;;;;;1.55;0.50;;;21.30;45.00;;;;;;5034034;27;43513;-62
2022/04/05 13:08:10;;;;;;;1.58;0.75;;;21.20;45.00;;;;;;5062263;27;43804;-62
2022/04/05 13:10:45;;;;;;;0.57;0.50;;;21.20;45.00;;;;;;5034270;27;43494;-62